createdAt,value
2023-01-26T00:02:38.643Z,42.10
2023-01-26T00:05:44.223Z,40.58
2023-01-26T00:08:57.877Z,39.38
2023-01-26T00:12:03.150Z,39.88
2023-01-26T00:15:09.599Z,41.18
2023-01-26T00:18:16.305Z,40.60
2023-01-26T00:21:23.222Z,39.67
2023-01-26T00:24:28.644Z,37.45
2023-01-26T00:27:34.479Z,39.65
2023-01-26T00:30:41.035Z,55.38
2023-01-26T00:33:47.452Z,91.53
2023-01-26T00:36:53.804Z,60.23
2023-01-26T00:39:59.021Z,62.50
2023-01-26T00:43:07.416Z,54.33
2023-01-26T00:46:12.623Z,61.77
2023-01-26T00:49:18.341Z,57.70
2023-01-26T00:52:24.221Z,66.55
2023-01-26T00:55:30.478Z,58.65
2023-01-26T00:58:37.099Z,46.10
2023-01-26T01:01:43.673Z,43.10
2023-01-26T01:04:48.957Z,43.38
2023-01-26T01:07:55.140Z,41.40
2023-01-26T01:11:01.530Z,37.83
2023-01-26T01:14:08.973Z,52.20
2023-01-26T01:17:15.832Z,51.77
2023-01-26T01:20:23.280Z,55.10
2023-01-26T01:23:29.704Z,50.85
2023-01-26T01:26:34.507Z,51.42
2023-01-26T01:29:40.165Z,48.23
2023-01-26T01:32:51.979Z,45.35
2023-01-26T01:35:57.967Z,48.23
2023-01-26T01:38:59.224Z,45.73
2023-01-26T01:42:04.050Z,39.42
2023-01-26T01:45:43.866Z,37.95
2023-01-26T01:49:12.543Z,37.42
2023-01-26T01:52:27.216Z,44.03
2023-01-26T01:55:33.449Z,40.38
2023-01-26T01:58:38.979Z,35.48
2023-01-26T02:01:46.547Z,34.00
2023-01-26T02:04:52.585Z,36.03
2023-01-26T02:07:59.574Z,37.13
2023-01-26T02:11:07.204Z,37.60
2023-01-26T02:14:13.634Z,38.40
2023-01-26T02:17:23.347Z,34.20
2023-01-26T02:20:53.664Z,36.58
2023-01-26T02:24:20.506Z,34.98
2023-01-26T02:27:27.535Z,28.67
2023-01-26T02:30:32.171Z,34.67
2023-01-26T02:33:42.473Z,38.65
2023-01-26T02:36:48.581Z,34.58
2023-01-26T02:40:16.225Z,33.55
2023-01-26T02:43:22.705Z,32.85
2023-01-26T02:46:29.513Z,29.98
2023-01-26T02:49:50.758Z,26.57
2023-01-26T02:52:58.799Z,24.77
2023-01-26T02:56:05.383Z,29.12
2023-01-26T02:59:10.901Z,25.30
2023-01-26T03:02:15.807Z,31.80
2023-01-26T03:05:23.567Z,29.65
2023-01-26T03:08:33.211Z,24.60
2023-01-26T03:11:41.029Z,19.15
2023-01-26T03:14:47.208Z,29.20
2023-01-26T03:17:53.972Z,18.82
2023-01-26T03:21:21.850Z,22.45
2023-01-26T03:24:46.314Z,17.62
2023-01-26T03:27:55.764Z,22.22
2023-01-26T03:31:01.010Z,24.23
2023-01-26T03:34:06.401Z,20.40
2023-01-26T03:37:12.146Z,21.65
2023-01-26T03:40:38.433Z,18.45
2023-01-26T03:44:04.507Z,24.20
2023-01-26T03:47:27.796Z,23.05
2023-01-26T03:50:52.415Z,26.02
2023-01-26T03:54:16.122Z,26.70
2023-01-26T03:57:22.156Z,26.02
2023-01-26T04:00:29.129Z,20.70
2023-01-26T04:03:55.010Z,24.80
2023-01-26T04:07:20.127Z,24.82
2023-01-26T04:10:28.021Z,22.75
2023-01-26T04:13:55.472Z,24.15
2023-01-26T04:17:20.110Z,28.20
2023-01-26T04:20:43.872Z,24.12
2023-01-26T04:23:49.342Z,26.90
2023-01-26T04:26:56.913Z,20.75
2023-01-26T04:30:07.581Z,21.05
2023-01-26T04:33:13.938Z,26.68
2023-01-26T04:36:22.523Z,22.67
2023-01-26T04:39:27.513Z,26.45
2023-01-26T04:42:32.917Z,29.48
2023-01-26T04:45:38.727Z,27.27
2023-01-26T04:48:46.240Z,22.48
2023-01-26T04:51:53.568Z,28.98
2023-01-26T04:55:01.539Z,26.85
2023-01-26T04:58:09.644Z,22.80
2023-01-26T05:01:16.013Z,27.90
2023-01-26T05:04:21.380Z,26.50
2023-01-26T05:07:26.579Z,33.23
2023-01-26T05:10:33.506Z,29.65
2023-01-26T05:13:47.940Z,28.45
2023-01-26T05:16:56.423Z,24.32
2023-01-26T05:20:13.388Z,27.98
2023-01-26T05:23:27.186Z,34.45
2023-01-26T05:26:32.985Z,25.20
2023-01-26T05:29:41.181Z,28.62
2023-01-26T05:32:49.766Z,22.05
2023-01-26T07:31:39.100Z,32.65
2023-01-26T07:34:52.422Z,29.63
2023-01-26T07:38:10.385Z,31.20
2023-01-26T07:41:39.560Z,34.13
2023-01-26T07:45:23.291Z,30.60
2023-01-26T07:48:31.471Z,28.98
2023-01-26T07:51:41.033Z,30.92
2023-01-26T07:55:15.921Z,30.90
2023-01-26T07:58:36.270Z,28.15
2023-01-26T08:01:59.673Z,29.32
2023-01-26T08:05:22.065Z,38.50
2023-01-26T08:08:31.080Z,62.50
2023-01-26T08:11:51.267Z,105.30
2023-01-26T08:15:17.218Z,82.08
2023-01-26T08:18:40.268Z,46.02
2023-01-26T08:22:12.398Z,35.40
2023-01-26T08:25:45.554Z,34.18
2023-01-26T08:29:13.773Z,38.08
2023-01-26T08:32:35.389Z,39.75
2023-01-26T08:35:50.436Z,34.80
2023-01-26T08:39:09.691Z,27.20
2023-01-26T08:42:34.289Z,29.52
2023-01-26T08:46:02.259Z,47.33
2023-01-26T08:49:18.420Z,65.30
2023-01-26T08:52:32.180Z,48.20
2023-01-26T08:55:44.011Z,35.23
2023-01-26T08:59:16.641Z,27.35
2023-01-26T09:02:36.358Z,35.58
2023-01-26T09:06:08.790Z,30.65
2023-01-26T09:09:22.028Z,33.50
2023-01-26T09:12:42.648Z,30.05
2023-01-26T09:15:55.721Z,32.83
2023-01-26T09:19:14.907Z,35.00
2023-01-26T09:22:27.516Z,31.23
2023-01-26T09:25:42.714Z,39.35
2023-01-26T09:33:00.375Z,53.68
2023-01-26T09:36:28.687Z,38.90
2023-01-26T09:51:11.424Z,30.75
2023-01-26T09:54:49.470Z,24.35
2023-01-26T09:58:25.675Z,27.58
2023-01-26T10:02:06.173Z,31.68
2023-01-26T10:05:25.667Z,29.35
2023-01-26T10:08:43.200Z,30.10
2023-01-26T10:12:10.732Z,26.05
2023-01-26T10:15:44.844Z,27.17
2023-01-26T10:19:22.195Z,28.42
2023-01-26T10:23:00.200Z,27.10
2023-01-26T10:26:13.992Z,46.58
2023-01-26T10:29:30.614Z,37.55
2023-01-26T10:32:42.440Z,30.30
2023-01-26T10:35:58.735Z,44.03
2023-01-26T10:39:16.991Z,38.17
2023-01-26T10:42:39.020Z,34.00
2023-01-26T10:46:04.278Z,34.38
2023-01-26T10:49:20.684Z,31.15
2023-01-26T10:52:38.490Z,28.52
2023-01-26T10:56:03.798Z,31.37
2023-01-26T10:59:22.774Z,41.28
2023-01-26T11:06:44.814Z,33.73
2023-01-26T11:10:16.532Z,29.52
2023-01-26T11:13:49.577Z,31.10
2023-01-26T11:17:31.073Z,31.02
2023-01-26T11:21:10.822Z,31.27
2023-01-26T11:24:36.189Z,28.15
2023-01-26T11:42:30.749Z,28.00
2023-01-26T11:46:33.717Z,37.48
2023-01-26T11:50:08.999Z,28.83
2023-01-26T11:54:01.255Z,31.25
2023-01-26T12:01:08.437Z,27.90
2023-01-26T12:04:40.049Z,28.40
2023-01-26T12:08:51.502Z,28.35
2023-01-26T12:12:30.547Z,31.50
2023-01-26T12:15:51.778Z,28.73
2023-01-26T12:19:31.420Z,31.42
2023-01-26T12:23:01.620Z,26.30
2023-01-26T12:26:47.602Z,34.90
2023-01-26T12:30:37.140Z,32.60
2023-01-26T12:34:06.869Z,28.15
2023-01-26T12:38:17.355Z,29.02
2023-01-26T12:41:45.571Z,30.17
2023-01-26T12:45:24.727Z,33.13
2023-01-26T12:49:01.639Z,30.23
2023-01-26T12:56:37.300Z,30.50
2023-01-26T13:04:01.148Z,29.50
2023-01-26T13:08:03.464Z,29.10
2023-01-26T13:12:24.051Z,29.75
2023-01-26T13:15:58.786Z,36.30
2023-01-26T13:19:20.142Z,28.42
2023-01-26T13:23:11.545Z,32.05
2023-01-26T13:29:57.231Z,28.65
2023-01-26T13:33:28.820Z,31.30
2023-01-26T13:36:43.076Z,35.90
2023-01-26T13:43:32.048Z,31.55
2023-01-26T13:47:31.137Z,35.68
2023-01-26T13:50:53.970Z,32.78
2023-01-26T13:54:33.576Z,30.45
2023-01-26T13:58:34.588Z,33.02
2023-01-26T14:01:52.387Z,31.50
2023-01-26T14:05:26.116Z,32.33
2023-01-26T14:08:41.838Z,36.00
2023-01-26T14:12:23.818Z,32.60
2023-01-26T14:16:06.584Z,32.63
2023-01-26T14:19:40.396Z,35.43
2023-01-26T14:23:13.885Z,33.20
2023-01-26T14:26:57.081Z,31.05
2023-01-26T14:30:35.958Z,28.40
2023-01-26T14:34:05.374Z,31.33
2023-01-26T14:37:50.172Z,32.00
2023-01-26T14:41:18.977Z,35.92
2023-01-26T14:49:05.050Z,37.53
2023-01-26T14:56:16.626Z,51.50
2023-01-26T14:59:46.580Z,41.60
2023-01-26T15:03:24.616Z,35.10
2023-01-26T15:06:55.436Z,40.58
2023-01-26T15:10:16.598Z,36.90
2023-01-26T15:17:35.182Z,40.55
2023-01-26T15:21:01.851Z,35.43
2023-01-26T15:24:39.580Z,43.63
2023-01-26T15:28:11.141Z,42.62
2023-01-26T15:31:52.423Z,54.38
2023-01-26T15:35:23.087Z,40.50
2023-01-26T15:38:49.287Z,41.33
2023-01-26T15:42:27.934Z,40.12
2023-01-26T15:46:12.453Z,36.42
2023-01-26T16:31:25.232Z,35.75
2023-01-26T16:34:36.623Z,35.75
2023-01-26T16:37:56.876Z,33.45
2023-01-26T16:41:22.369Z,33.80
2023-01-26T16:44:43.848Z,35.13
2023-01-26T16:48:01.813Z,38.42
2023-01-26T16:54:40.718Z,39.23
2023-01-26T16:58:00.315Z,34.53
2023-01-26T17:01:16.589Z,33.55
2023-01-26T17:04:31.508Z,45.05
2023-01-26T17:07:53.994Z,41.92
2023-01-26T17:11:13.875Z,39.78
2023-01-26T17:14:32.881Z,42.23
2023-01-26T17:17:52.125Z,30.90
2023-01-26T17:21:09.140Z,34.70
2023-01-26T17:24:32.139Z,33.18
2023-01-26T17:27:46.399Z,33.25
2023-01-26T17:31:05.527Z,33.02
2023-01-26T17:34:20.268Z,32.95
2023-01-26T17:37:35.849Z,33.65
2023-01-26T17:41:02.838Z,35.68
2023-01-26T17:44:23.432Z,39.08
2023-01-26T17:47:48.472Z,45.38
2023-01-26T17:51:20.992Z,38.15
2023-01-26T17:54:49.014Z,39.75
2023-01-26T17:58:04.588Z,39.42
2023-01-26T18:01:32.743Z,32.67
2023-01-26T18:05:00.972Z,36.30
2023-01-26T18:08:13.530Z,34.03
2023-01-26T18:11:27.385Z,36.53
2023-01-26T18:14:40.017Z,33.13
2023-01-26T18:17:54.735Z,34.43
2023-01-26T18:21:08.451Z,39.55
2023-01-26T18:24:19.024Z,41.25
2023-01-26T18:27:39.733Z,41.90
2023-01-26T18:30:47.609Z,41.25
2023-01-26T18:34:07.882Z,40.10
2023-01-26T18:37:27.559Z,38.45
2023-01-26T18:40:38.958Z,39.63
2023-01-26T18:43:49.617Z,39.10
2023-01-26T18:47:06.476Z,42.70
2023-01-26T18:50:18.084Z,42.43
2023-01-26T18:53:28.444Z,46.35
2023-01-26T18:56:50.935Z,43.83
2023-01-26T19:00:08.491Z,42.13
2023-01-26T19:03:26.162Z,47.98
2023-01-26T19:06:43.823Z,46.40
2023-01-26T19:10:18.570Z,42.53
2023-01-26T19:13:33.928Z,53.65
2023-01-26T19:16:44.255Z,45.55
2023-01-26T19:19:56.985Z,47.58
2023-01-26T19:23:13.618Z,45.40
2023-01-26T19:26:29.076Z,49.50
2023-01-26T19:29:40.979Z,48.95
2023-01-26T19:33:11.740Z,56.60
2023-01-26T19:36:24.225Z,45.25
2023-01-26T19:39:34.058Z,49.80
2023-01-26T19:42:46.363Z,50.78
2023-01-26T19:45:56.671Z,46.35
2023-01-26T19:49:10.399Z,46.63
2023-01-26T19:52:24.129Z,54.23
2023-01-26T19:55:40.431Z,52.45
2023-01-26T19:58:55.824Z,53.40
2023-01-26T20:02:11.529Z,52.48
2023-01-26T20:05:22.338Z,55.20
2023-01-26T20:08:39.916Z,60.43
2023-01-26T20:11:55.803Z,52.98
2023-01-26T20:15:12.058Z,51.53
2023-01-26T20:18:29.544Z,55.65
2023-01-26T20:21:41.539Z,50.90
2023-01-26T20:24:59.879Z,49.25
2023-01-26T20:28:17.508Z,52.60
2023-01-26T20:31:39.878Z,55.75
2023-01-26T20:35:00.628Z,53.30
2023-01-26T20:38:09.823Z,53.55
2023-01-26T20:41:24.846Z,52.50
2023-01-26T20:44:37.424Z,53.23
2023-01-26T20:47:51.098Z,67.60
2023-01-26T20:51:07.934Z,52.38
2023-01-26T20:54:23.152Z,49.45
2023-01-26T20:57:36.720Z,69.85
2023-01-26T21:00:53.805Z,51.90
2023-01-26T21:04:04.788Z,49.45
2023-01-26T21:07:16.336Z,47.05
2023-01-26T21:10:29.217Z,99.28
2023-01-26T21:13:44.486Z,56.55
2023-01-26T21:16:57.259Z,95.77
2023-01-26T21:20:16.362Z,79.70
2023-01-26T21:23:35.492Z,72.20
2023-01-26T21:26:46.842Z,52.53
2023-01-26T21:30:08.853Z,40.38
2023-01-26T21:33:21.965Z,40.63
2023-01-26T21:36:42.183Z,46.73
2023-01-26T21:40:04.838Z,42.73
2023-01-26T21:43:24.453Z,42.15
2023-01-26T21:46:37.377Z,42.80
2023-01-26T21:50:02.967Z,43.38
2023-01-26T21:53:18.029Z,47.48
2023-01-26T21:56:34.365Z,44.10
2023-01-26T21:59:50.788Z,48.17
2023-01-26T22:03:11.668Z,44.63
2023-01-26T22:06:30.036Z,43.30
2023-01-26T22:09:59.336Z,48.40
2023-01-26T22:13:23.075Z,42.27
2023-01-26T22:16:34.549Z,45.17
2023-01-26T22:19:42.379Z,48.85
2023-01-26T22:22:58.120Z,51.00
2023-01-26T22:26:30.378Z,54.35
2023-01-26T22:29:46.696Z,43.10
2023-01-26T22:33:03.622Z,41.15
2023-01-26T22:36:21.368Z,43.10
2023-01-26T22:39:38.963Z,46.90
2023-01-26T22:43:08.651Z,44.48
2023-01-26T22:46:18.884Z,42.55
2023-01-26T22:49:21.999Z,39.30
2023-01-26T22:52:27.001Z,41.48
2023-01-26T22:55:18.418Z,41.40
2023-01-26T22:58:57.564Z,43.95
2023-01-26T23:02:24.002Z,46.18
2023-01-26T23:05:45.395Z,45.85
2023-01-26T23:09:07.061Z,49.60
2023-01-26T23:12:37.771Z,43.63
2023-01-26T23:16:05.588Z,44.45
2023-01-26T23:19:19.847Z,56.95
2023-01-26T23:22:37.680Z,50.48
2023-01-26T23:26:05.866Z,45.92
2023-01-26T23:29:27.762Z,45.28
2023-01-26T23:33:03.648Z,41.48
2023-01-26T23:36:19.914Z,43.50
2023-01-26T23:39:38.371Z,43.68
